Time;durP1;ratioP1;P1;durP2;ratioP2;P2;SDS_P1;SDS_P2;PMS_P1;PMS_P2;Temp;Humidity;BMP_temperature;BMP_pressure;BME280_temperature;BME280_humidity;BME280_pressure;Samples;Min_cycle;Max_cycle;Signal;HPM_P1;HPM_P2
2021/12/20 00:03:52;;;;;;;19.47;18.10;;;;;;;9.04;89.81;102737.94;10471008;28;20245;-81
2021/12/20 00:08:55;;;;;;;20.07;18.40;;;;;;;9.05;89.82;102714.78;10474881;28;20654;-81
2021/12/20 00:13:57;;;;;;;19.20;18.00;;;;;;;8.91;89.52;102697.50;10465210;28;20242;-81
2021/12/20 00:19:00;;;;;;;957.67;548.83;;;;;;;8.84;89.44;102671.13;10468089;28;20202;-80
2021/12/20 00:24:02;;;;;;;1127.00;720.33;;;;;;;9.01;89.26;102723.81;10475617;28;20556;-79
2021/12/20 00:29:03;;;;;;;1071.53;646.50;;;;;;;8.70;89.93;102652.91;10469887;28;20227;-80
2021/12/20 00:34:06;;;;;;;20.50;19.10;;;;;;;8.87;89.00;102686.97;10479520;28;20227;-80
2021/12/20 00:44:27;;;;;;;20.40;18.93;;;;;;;8.50;88.44;102625.19;10473350;28;20207;-80
2021/12/20 00:49:30;;;;;;;19.13;17.33;;;;;;;8.90;88.82;102703.72;10480029;28;20269;-80
2021/12/20 00:54:32;;;;;;;1017.37;599.23;;;;;;;8.88;87.85;102700.25;10480727;28;20209;-80
2021/12/20 00:59:34;;;;;;;20.10;18.13;;;;;;;7.73;87.70;102505.28;10482401;28;20267;-80
2021/12/20 01:04:37;;;;;;;20.57;18.43;;;;;;;8.36;86.74;102622.97;10481689;28;20242;-81
2021/12/20 01:09:39;;;;;;;20.67;18.50;;;;;;;8.64;87.18;102661.13;10481360;28;20638;-80
2021/12/20 01:14:40;;;;;;;20.37;18.40;;;;;;;8.20;86.44;102589.78;10478180;28;20207;-80
2021/12/20 01:19:43;;;;;;;23.13;18.77;;;;;;;8.55;85.49;102664.97;10482911;28;20659;-81
2021/12/20 01:24:45;;;;;;;20.77;18.70;;;;;;;8.60;85.78;102673.69;10477102;28;20618;-81
2021/12/20 01:29:47;;;;;;;22.27;18.87;;;;;;;8.72;85.35;102685.69;10472866;28;20241;-81
2021/12/20 01:34:50;;;;;;;22.53;20.33;;;;;;;8.52;84.61;102667.75;10476863;28;20310;-80
2021/12/20 01:39:53;;;;;;;21.03;18.97;;;;;;;8.68;83.96;102686.72;10477960;28;20239;-80
2021/12/20 01:44:56;;;;;;;20.63;18.50;;;;;;;8.13;84.54;102590.91;10481604;28;20206;-80
2021/12/20 01:50:04;;;;;;;21.03;18.87;;;;;;;8.59;83.78;102671.97;10479231;28;20330;-80
2021/12/20 01:55:07;;;;;;;25.50;19.50;;;;;;;8.60;83.41;102686.13;10474580;28;20321;-80
2021/12/20 02:00:12;;;;;;;23.60;18.60;;;;;;;8.29;82.20;102644.53;10482889;28;20598;-81
2021/12/20 02:05:20;;;;;;;21.17;18.60;;;;;;;8.18;82.60;102642.19;10473681;28;20210;-80
2021/12/20 02:10:22;;;;;;;21.70;18.00;;;;;;;8.55;83.03;102686.28;10480097;28;20310;-81
2021/12/20 02:15:24;;;;;;;972.10;570.27;;;;;;;8.27;82.53;102636.56;10480097;28;20280;-80
2021/12/20 02:20:29;;;;;;;965.17;520.00;;;;;;;8.52;82.52;102681.06;10472899;28;20690;-80
2021/12/20 02:25:32;;;;;;;1001.20;555.77;;;;;;;8.12;81.34;102613.13;10471156;28;20903;-80
2021/12/20 02:30:48;;;;;;;1195.53;764.27;;;;;;;8.48;82.69;102672.31;10479355;28;20338;-80
2021/12/20 02:41:14;;;;;;;1073.33;642.03;;;;;;;8.35;81.34;102655.81;10477816;28;20227;-80
2021/12/20 02:46:31;;;;;;;1153.47;650.40;;;;;;;8.43;82.16;102671.56;10479434;28;20196;-80
2021/12/20 02:51:35;;;;;;;1215.77;718.47;;;;;;;7.31;81.79;102479.16;10474220;28;20214;-80
2021/12/20 02:56:37;;;;;;;1205.37;748.30;;;;;;;8.37;81.53;102651.31;10475840;28;20294;-80
2021/12/20 03:01:41;;;;;;;1202.17;735.70;;;;;;;8.36;80.98;102664.66;10482625;28;20223;-81
2021/12/20 03:06:48;;;;;;;1124.50;692.57;;;;;;;8.05;80.16;102601.81;10481561;28;20202;-83
2021/12/20 03:11:55;;;;;;;1132.73;696.03;;;;;;;8.37;81.25;102655.78;10483047;28;20219;-80
2021/12/20 03:16:57;;;;;;;1074.80;632.83;;;;;;;8.38;81.19;102658.41;10477342;28;20215;-79
2021/12/20 03:22:01;;;;;;;1103.87;592.33;;;;;;;8.36;80.88;102656.69;10473201;28;20672;-80
2021/12/20 03:27:03;;;;;;;1092.07;527.20;;;;;;;8.36;80.43;102657.56;10484717;28;20207;-80
2021/12/20 03:32:05;;;;;;;1110.53;626.60;;;;;;;7.82;79.81;102575.06;10472430;28;20728;-80
2021/12/20 03:37:08;;;;;;;1078.40;488.33;;;;;;;8.22;80.01;102650.97;10468129;28;20214;-79
2021/12/20 03:42:10;;;;;;;866.63;255.20;;;;;;;8.31;79.91;102659.50;10472333;28;20223;-80
2021/12/20 03:47:13;;;;;;;918.97;268.13;;;;;;;8.08;80.08;102625.66;10473106;28;20266;-79
2021/12/20 03:52:16;;;;;;;879.63;240.67;;;;;;;7.99;79.91;102632.13;10467808;28;20217;-81
2021/12/20 03:57:18;;;;;;;1568.20;832.30;;;;;;;8.00;79.22;102627.69;10474737;28;20202;-80
2021/12/20 04:02:21;;;;;;;1115.13;638.47;;;;;;;8.02;78.37;102630.28;10465040;28;20710;-80
2021/12/20 04:07:24;;;;;;;21.17;18.63;;;;;;;7.89;79.40;102612.09;10468299;28;20203;-80
2021/12/20 04:12:26;;;;;;;20.10;18.17;;;;;;;8.16;79.26;102649.38;10478141;28;20207;-79
2021/12/20 04:17:27;;;;;;;24.13;18.40;;;;;;;7.74;77.88;102594.81;10473529;28;20199;-80
2021/12/20 04:22:30;;;;;;;21.17;19.27;;;;;;;8.06;77.61;102638.16;10471048;28;20234;-79
2021/12/20 04:27:32;;;;;;;20.07;17.97;;;;;;;8.11;78.61;102648.63;10474157;28;20203;-80
2021/12/20 04:32:34;;;;;;;952.57;305.53;;;;;;;8.17;77.55;102661.75;10468719;28;20226;-79
2021/12/20 04:37:40;;;;;;;1095.00;599.60;;;;;;;8.19;78.99;102660.78;10470374;28;20218;-80
2021/12/20 04:42:41;;;;;;;1074.57;503.87;;;;;;;8.21;77.88;102652.72;10478583;28;20222;-80
2021/12/20 04:47:44;;;;;;;1077.47;515.90;;;;;;;8.22;78.37;102656.28;10477187;28;20223;-79
2021/12/20 04:52:47;;;;;;;929.70;459.93;;;;;;;8.01;78.84;102613.47;10468715;28;20289;-80
2021/12/20 04:57:48;;;;;;;20.50;18.60;;;;;;;8.22;78.57;102654.47;10469587;28;21658;-79
2021/12/20 05:02:50;;;;;;;19.57;17.73;;;;;;;8.23;78.37;102648.25;10470838;28;20238;-79
2021/12/20 05:07:54;;;;;;;24.47;18.70;;;;;;;8.22;78.79;102650.97;10462441;28;20223;-79
2021/12/20 05:12:58;;;;;;;21.13;18.83;;;;;;;8.06;77.45;102631.94;10469969;28;20307;-80
2021/12/20 05:18:00;;;;;;;19.63;17.93;;;;;;;8.16;78.42;102655.56;10472577;28;20211;-80
2021/12/20 05:23:07;;;;;;;20.87;18.93;;;;;;;8.15;77.75;102661.78;10472817;28;20219;-80
2021/12/20 05:28:09;;;;;;;19.73;17.63;;;;;;;8.16;77.17;102654.69;10477881;28;20199;-80
2021/12/20 05:33:11;;;;;;;20.13;18.10;;;;;;;8.13;77.55;102665.44;10472423;28;20231;-79
2021/12/20 05:38:14;;;;;;;20.23;18.03;;;;;;;8.11;77.42;102660.16;10473138;28;20202;-80
2021/12/20 05:43:16;;;;;;;21.60;18.63;;;;;;;7.71;76.85;102588.72;10473211;28;20223;-80
2021/12/20 05:48:17;;;;;;;20.53;18.70;;;;;;;8.11;76.19;102665.47;10472138;28;20215;-80
2021/12/20 05:53:20;;;;;;;20.57;18.43;;;;;;;7.95;76.24;102629.63;10470723;28;20210;-79
2021/12/20 05:58:22;;;;;;;19.67;18.03;;;;;;;7.37;76.33;102564.03;10470728;28;20292;-79
2021/12/20 06:03:24;;;;;;;19.17;17.63;;;;;;;8.12;76.78;102669.88;10464816;28;20737;-80
2021/12/20 06:08:27;;;;;;;20.03;17.83;;;;;;;7.78;75.95;102611.53;10468354;28;20260;-80
2021/12/20 06:13:29;;;;;;;21.60;17.87;;;;;;;8.00;76.50;102662.28;10472148;28;20677;-80
2021/12/20 06:18:30;;;;;;;22.27;19.70;;;;;;;7.54;76.56;102594.56;10472190;28;20208;-80
2021/12/20 06:23:33;;;;;;;20.47;18.63;;;;;;;7.78;76.28;102633.69;10467690;28;20257;-80
2021/12/20 06:28:35;;;;;;;19.53;17.50;;;;;;;7.98;77.06;102677.41;10457810;28;20219;-80
2021/12/20 06:33:37;;;;;;;22.67;19.00;;;;;;;8.10;76.31;102694.78;10460253;28;20713;-80
2021/12/20 06:38:45;;;;;;;20.70;18.70;;;;;;;8.09;76.52;102685.06;10472930;28;20204;-80
2021/12/20 06:43:47;;;;;;;19.17;17.67;;;;;;;8.07;76.70;102679.78;10471987;28;20245;-79
2021/12/20 06:48:48;;;;;;;19.20;17.13;;;;;;;8.04;75.17;102693.19;10473954;28;20206;-79
2021/12/20 06:53:54;;;;;;;18.60;17.30;;;;;;;8.02;74.48;102689.69;10475376;28;20742;-80
2021/12/20 06:58:56;;;;;;;19.57;17.90;;;;;;;8.03;74.60;102688.81;10462799;28;20211;-80
2021/12/20 07:03:58;;;;;;;19.30;17.57;;;;;;;7.71;74.37;102637.44;10470123;28;20215;-80
2021/12/20 07:09:02;;;;;;;18.27;16.60;;;;;;;8.03;73.37;102687.94;10467627;28;20260;-80
2021/12/20 07:14:05;;;;;;;17.97;16.53;;;;;;;7.29;73.56;102571.38;10469665;28;20207;-80
2021/12/20 07:19:07;;;;;;;18.30;16.70;;;;;;;7.95;73.50;102693.50;10478020;28;20844;-80
2021/12/20 07:24:10;;;;;;;18.63;17.07;;;;;;;7.72;72.80;102648.94;10471168;28;20698;-80
2021/12/20 07:29:12;;;;;;;19.00;17.30;;;;;;;7.71;72.51;102653.41;10462493;28;20926;-80
2021/12/20 07:34:14;;;;;;;18.13;16.63;;;;;;;7.89;72.48;102689.22;10469410;28;20313;-79
2021/12/20 07:39:17;;;;;;;18.47;16.87;;;;;;;7.32;72.97;102600.50;10474186;28;20203;-79
2021/12/20 07:44:18;;;;;;;18.50;16.97;;;;;;;7.87;73.46;102699.03;10457880;28;20231;-80
2021/12/20 07:49:20;;;;;;;17.63;16.47;;;;;;;7.49;73.38;102639.00;10464829;28;20207;-80
2021/12/20 07:54:23;;;;;;;18.80;17.20;;;;;;;7.71;73.16;102685.31;10470109;28;20594;-80
2021/12/20 07:59:25;;;;;;;18.03;16.43;;;;;;;7.85;73.82;102697.34;10465423;28;20210;-80
2021/12/20 08:04:26;;;;;;;18.10;16.80;;;;;;;7.36;74.17;102628.72;10465808;28;20661;-80
2021/12/20 08:09:30;;;;;;;18.53;17.13;;;;;;;7.86;74.34;102710.59;10467099;28;20212;-80
2021/12/20 08:14:32;;;;;;;18.37;16.90;;;;;;;7.86;73.95;102710.59;10478545;28;20200;-79
2021/12/20 08:19:33;;;;;;;18.67;17.17;;;;;;;7.40;73.58;102642.78;10470496;28;20651;-80
2021/12/20 08:24:36;;;;;;;18.50;17.23;;;;;;;7.87;73.83;102707.00;10464727;28;20241;-80
2021/12/20 08:29:38;;;;;;;18.20;16.70;;;;;;;7.90;73.60;102708.72;10466745;28;20238;-80
2021/12/20 08:34:40;;;;;;;19.83;18.17;;;;;;;7.93;74.18;102720.16;10464976;28;20218;-80
2021/12/20 08:39:43;;;;;;;18.77;17.03;;;;;;;6.71;73.97;102507.50;10470444;28;20214;-80
2021/12/20 08:44:44;;;;;;;17.33;16.13;;;;;;;7.71;74.18;102671.16;10469874;28;20265;-79
2021/12/20 08:49:46;;;;;;;18.10;16.70;;;;;;;7.94;74.50;102708.56;10469109;28;20230;-79
2021/12/20 08:54:49;;;;;;;18.67;17.10;;;;;;;7.75;74.61;102684.31;10476199;28;20200;-80
2021/12/20 08:59:51;;;;;;;19.43;17.33;;;;;;;7.98;74.96;102726.19;10485394;28;20200;-79
2021/12/20 09:04:52;;;;;;;18.50;16.90;;;;;;;7.71;74.61;102669.38;10475869;28;20588;-80
2021/12/20 09:09:56;;;;;;;18.93;17.53;;;;;;;8.04;73.94;102727.78;10480706;28;20874;-80
2021/12/20 09:14:57;;;;;;;17.87;16.53;;;;;;;8.03;74.12;102733.16;10481573;28;20582;-80
2021/12/20 09:19:59;;;;;;;327.97;191.00;;;;;;;7.84;73.95;102700.94;10482217;28;20229;-79
2021/12/20 09:25:02;;;;;;;18.70;17.20;;;;;;;7.67;74.51;102673.03;10483602;28;20840;-79
2021/12/20 09:30:04;;;;;;;19.87;18.33;;;;;;;8.10;74.64;102730.28;10481063;28;20293;-80
2021/12/20 09:35:07;;;;;;;19.23;17.83;;;;;;;7.79;74.15;102682.44;10477948;28;20203;-80
2021/12/20 09:40:13;;;;;;;18.40;17.10;;;;;;;8.13;74.54;102729.31;10483573;28;20298;-80
2021/12/20 09:45:18;;;;;;;18.63;17.30;;;;;;;8.10;74.12;102732.03;10478204;28;20218;-81
2021/12/20 09:50:20;;;;;;;18.20;16.70;;;;;;;8.05;74.62;102718.88;10486927;28;20293;-80
2021/12/20 09:55:23;;;;;;;18.57;17.10;;;;;;;8.22;73.96;102744.13;10480510;28;20648;-80
2021/12/20 10:00:25;;;;;;;18.23;16.93;;;;;;;8.27;74.07;102755.47;10482885;28;20239;-80
2021/12/20 10:05:27;;;;;;;18.30;16.90;;;;;;;8.29;73.78;102749.22;10484534;28;21653;-80
2021/12/20 10:10:40;;;;;;;19.23;17.67;;;;;;;8.34;74.11;102752.59;10483687;28;20207;-81
2021/12/20 10:15:42;;;;;;;19.27;17.77;;;;;;;8.11;75.20;102700.06;10480109;28;20206;-80
2021/12/20 10:20:50;;;;;;;19.10;17.50;;;;;;;8.43;75.13;102745.28;10482936;28;20360;-80
2021/12/20 10:25:55;;;;;;;19.60;18.17;;;;;;;8.46;74.71;102758.50;10477129;28;20264;-80
2021/12/20 10:31:00;;;;;;;19.77;18.00;;;;;;;8.43;74.75;102732.81;10476889;28;20232;-80
2021/12/20 10:36:04;;;;;;;21.87;18.03;;;;;;;8.55;75.64;102747.53;10476277;28;20471;-80
2021/12/20 10:41:12;;;;;;;18.63;17.20;;;;;;;8.65;74.97;102745.47;10476517;28;20747;-81
2021/12/20 10:46:18;;;;;;;19.13;17.33;;;;;;;8.69;75.62;102750.63;10474075;28;20536;-80
2021/12/20 10:51:25;;;;;;;19.47;17.97;;;;;;;8.27;75.00;102681.84;10477914;28;20230;-80
2021/12/20 10:56:29;;;;;;;18.73;17.17;;;;;;;8.51;74.87;102721.91;10468627;28;20203;-81
2021/12/20 11:01:55;;;;;;;20.47;18.90;;;;;;;8.81;74.90;102754.66;10473297;28;20219;-80
2021/12/20 11:09:04;;;;;;;18.87;17.33;;;;;;;8.84;75.54;102748.38;10475202;28;20647;-80
2021/12/20 11:12:31;;;;;;;28.83;25.93;;;;;;;8.67;74.61;102703.66;10471933;28;21480;-81
2021/12/20 11:17:33;;;;;;;18.20;16.93;;;;;;;8.52;74.13;102679.25;10467115;28;20228;-80
2021/12/20 11:22:35;;;;;;;18.00;16.90;;;;;;;8.58;74.17;102673.72;10476210;28;20245;-80
2021/12/20 11:27:42;;;;;;;16.63;15.53;;;;;;;8.30;73.51;102623.16;10472215;28;20187;-80
2021/12/20 11:32:46;;;;;;;17.27;16.27;;;;;;;8.96;72.92;102738.16;10465333;28;20238;-81
2021/12/20 11:37:47;;;;;;;16.83;15.97;;;;;;;9.00;72.62;102730.94;10474007;28;20203;-80
2021/12/20 11:42:51;;;;;;;17.67;16.50;;;;;;;8.83;72.65;102690.66;10466332;28;20231;-80
2021/12/20 11:47:59;;;;;;;16.57;15.80;;;;;;;8.50;72.78;102625.19;10470542;28;20975;-80
2021/12/20 11:53:07;;;;;;;16.70;15.40;;;;;;;8.97;71.13;102693.75;10467957;28;20249;-80
2021/12/20 11:58:18;;;;;;;16.53;15.60;;;;;;;9.20;70.84;102724.06;10463862;28;20364;-80
2021/12/20 12:03:24;;;;;;;16.13;15.23;;;;;;;8.94;71.48;102680.50;10462378;28;20233;-80
2021/12/20 12:08:31;;;;;;;16.50;15.37;;;;;;;9.14;70.67;102703.81;10468243;28;20276;-80
2021/12/20 12:14:34;;;;;;;16.17;15.27;;;;;;;9.40;71.07;102734.00;10463648;28;20222;-80
2021/12/20 12:19:42;;;;;;;16.10;15.30;;;;;;;9.20;69.88;102682.25;10466364;28;20246;-80
2021/12/20 12:24:46;;;;;;;14.90;14.20;;;;;;;9.46;69.08;102726.66;10471568;28;20235;-81
2021/12/20 12:30:30;;;;;;;15.70;15.00;;;;;;;9.36;68.54;102722.56;10463839;28;20982;-80
2021/12/20 12:35:49;;;;;;;16.43;15.40;;;;;;;9.20;68.68;102705.38;10474430;28;20218;-81
2021/12/20 12:40:53;;;;;;;17.37;16.33;;;;;;;9.01;68.59;102684.72;10486193;28;20201;-81
2021/12/20 12:45:59;;;;;;;18.93;17.73;;;;;;;9.34;66.19;102692.41;10476831;28;20459;-81
2021/12/20 12:51:05;;;;;;;17.03;16.03;;;;;;;9.07;68.17;102679.16;10475297;28;20294;-81
2021/12/20 12:56:29;;;;;;;16.93;15.93;;;;;;;9.26;68.87;102715.81;10479688;28;20302;-80
2021/12/20 13:01:32;;;;;;;1183.43;539.03;;;;;;;9.25;68.43;102714.06;10472208;28;20218;-80
2021/12/20 13:06:34;;;;;;;16.83;15.60;;;;;;;9.23;67.93;102703.50;10476990;28;20203;-81
2021/12/20 13:11:36;;;;;;;16.00;15.20;;;;;;;8.84;68.09;102636.47;10480655;28;20207;-82
2021/12/20 13:16:51;;;;;;;16.50;15.60;;;;;;;9.03;67.96;102668.66;10477489;28;20623;-81
2021/12/20 13:21:57;;;;;;;16.40;15.40;;;;;;;9.19;68.91;102690.31;10482150;28;20222;-80
2021/12/20 13:27:04;;;;;;;16.07;15.07;;;;;;;8.99;68.17;102662.56;10484368;28;20202;-80
2021/12/20 13:32:08;;;;;;;17.20;16.00;;;;;;;9.06;68.00;102674.75;10473510;28;20619;-80
2021/12/20 13:37:12;;;;;;;17.23;15.97;;;;;;;8.94;68.32;102668.06;10471159;28;20215;-81
2021/12/20 13:42:14;;;;;;;18.23;17.00;;;;;;;8.64;68.47;102631.84;10476008;28;20234;-80
2021/12/20 13:47:19;;;;;;;18.47;16.80;;;;;;;8.91;69.62;102681.50;10479575;28;20205;-79
2021/12/20 13:52:21;;;;;;;17.73;16.63;;;;;;;8.94;69.20;102699.16;10468804;28;20202;-80
2021/12/20 13:57:24;;;;;;;17.77;16.50;;;;;;;8.90;69.15;102690.41;10476672;28;20216;-80
2021/12/20 14:02:30;;;;;;;17.83;16.67;;;;;;;8.84;69.37;102687.09;10476451;28;20223;-80
2021/12/20 14:07:38;;;;;;;17.30;16.07;;;;;;;8.50;69.61;102646.50;10486153;28;20237;-80
2021/12/20 14:12:42;;;;;;;17.67;16.27;;;;;;;7.44;69.34;102473.44;10479452;28;20209;-80
2021/12/20 14:17:57;;;;;;;18.07;16.67;;;;;;;8.46;69.14;102647.53;10489508;28;20230;-79
2021/12/20 14:23:00;;;;;;;17.40;16.30;;;;;;;8.58;69.41;102668.41;10482668;28;20772;-79
2021/12/20 14:28:07;;;;;;;17.70;16.50;;;;;;;8.65;69.00;102670.88;10478131;28;20250;-80
2021/12/20 14:33:26;;;;;;;16.83;15.63;;;;;;;6.58;69.23;102353.00;10489690;28;20231;-80
2021/12/20 14:38:39;;;;;;;16.20;15.27;;;;;;;8.65;68.55;102682.41;10485760;28;20241;-80
2021/12/20 14:43:43;;;;;;;16.03;15.30;;;;;;;7.75;68.55;102556.63;10482837;28;20724;-80
2021/12/20 14:48:51;;;;;;;111.43;77.97;;;;;;;8.52;68.96;102665.94;10473391;28;20218;-79
2021/12/20 14:54:15;;;;;;;16.93;15.77;;;;;;;8.65;68.86;102687.72;10485323;28;20203;-80
2021/12/20 14:59:17;;;;;;;18.60;17.10;;;;;;;7.87;68.54;102555.38;10487158;28;20280;-80
2021/12/20 15:04:20;;;;;;;18.77;17.43;;;;;;;8.33;69.44;102627.53;10478316;28;20235;-80
2021/12/20 15:09:23;;;;;;;17.90;16.83;;;;;;;8.64;68.58;102696.63;10479085;28;20239;-80
2021/12/20 15:14:31;;;;;;;18.87;17.43;;;;;;;6.41;69.13;102316.38;10501958;28;20195;-80
2021/12/20 15:19:35;;;;;;;18.53;16.97;;;;;;;8.62;69.42;102677.16;10496134;28;20214;-80
2021/12/20 15:24:39;;;;;;;17.90;16.43;;;;;;;8.58;69.04;102678.19;10508893;28;20643;-79
2021/12/20 15:29:43;;;;;;;17.60;16.40;;;;;;;8.57;69.68;102681.78;10503376;28;20231;-79
2021/12/20 15:34:48;;;;;;;17.73;16.50;;;;;;;7.47;69.10;102518.56;10467340;28;20225;-79
2021/12/20 15:39:49;;;;;;;17.57;16.30;;;;;;;8.47;68.71;102667.03;10475017;28;20199;-80
2021/12/20 15:44:51;;;;;;;17.90;16.50;;;;;;;8.44;69.30;102683.09;10484608;28;20217;-79
2021/12/20 15:49:54;;;;;;;17.50;16.10;;;;;;;7.39;69.06;102511.69;10479063;28;20202;-80
2021/12/20 15:54:56;;;;;;;17.17;16.00;;;;;;;8.32;69.53;102677.22;10473282;28;20207;-79
2021/12/20 15:59:59;;;;;;;18.00;16.60;;;;;;;8.14;69.72;102657.41;10476621;28;21051;-79
2021/12/20 16:05:03;;;;;;;18.30;16.93;;;;;;;8.10;69.65;102637.13;10471869;28;20276;-80
2021/12/20 16:10:05;;;;;;;18.30;17.10;;;;;;;8.21;70.12;102671.34;10473360;28;20874;-80
2021/12/20 16:15:08;;;;;;;18.53;17.20;;;;;;;7.93;69.98;102628.78;10475116;28;20248;-80
2021/12/20 16:20:12;;;;;;;18.20;16.90;;;;;;;8.13;70.26;102665.44;10481728;28;20208;-79
2021/12/20 16:25:17;;;;;;;18.37;17.10;;;;;;;8.09;69.79;102659.31;10476576;28;20284;-79
2021/12/20 16:30:20;;;;;;;18.57;16.90;;;;;;;8.03;70.12;102663.97;10479662;28;20254;-79
2021/12/20 16:35:25;;;;;;;18.40;16.83;;;;;;;7.62;70.20;102613.78;10478860;28;20217;-79
2021/12/20 16:40:28;;;;;;;18.63;17.17;;;;;;;7.80;70.92;102652.25;10471686;28;20216;-80
2021/12/20 16:45:41;;;;;;;18.07;16.80;;;;;;;7.93;71.09;102668.69;10475414;28;20266;-79
2021/12/20 16:50:44;;;;;;;17.80;16.60;;;;;;;7.45;70.50;102603.66;10476782;28;20548;-81
2021/12/20 16:55:49;;;;;;;17.77;16.47;;;;;;;7.89;70.66;102673.28;10479559;28;20207;-80
2021/12/20 17:00:51;;;;;;;17.90;16.60;;;;;;;7.88;70.33;102666.19;10476719;28;20230;-79
2021/12/20 17:06:09;;;;;;;17.50;16.30;;;;;;;7.71;69.81;102633.94;10475990;28;22051;-80
2021/12/20 17:11:12;;;;;;;18.70;16.90;;;;;;;7.85;69.02;102666.28;10469496;28;20277;-80
2021/12/20 17:16:14;;;;;;;18.20;17.00;;;;;;;7.46;69.00;102605.41;10482059;28;20195;-80
2021/12/20 17:21:17;;;;;;;18.03;16.83;;;;;;;7.78;68.58;102659.44;10482104;28;20207;-81
2021/12/20 17:26:19;;;;;;;17.53;16.27;;;;;;;7.77;69.63;102660.31;10478569;28;20805;-80
2021/12/20 17:31:21;;;;;;;18.63;16.90;;;;;;;7.74;69.01;102648.00;10483202;28;20246;-80
2021/12/20 17:36:24;;;;;;;17.90;16.80;;;;;;;7.18;69.25;102577.00;10487985;28;20236;-81
2021/12/20 17:41:26;;;;;;;18.93;17.43;;;;;;;7.60;69.45;102660.84;10484127;28;20212;-80
2021/12/20 17:46:28;;;;;;;17.73;16.40;;;;;;;7.65;68.44;102669.56;10485714;28;20283;-80
2021/12/20 17:51:31;;;;;;;17.93;16.57;;;;;;;7.49;68.47;102644.31;10491074;28;20215;-79
2021/12/20 17:56:35;;;;;;;18.20;16.83;;;;;;;7.30;68.48;102638.69;10491247;28;20219;-79
2021/12/20 18:01:37;;;;;;;18.03;16.80;;;;;;;6.75;68.93;102540.16;10475669;28;20261;-80
2021/12/20 18:06:40;;;;;;;17.13;16.00;;;;;;;7.52;69.53;102681.47;10488382;28;20222;-79
2021/12/20 18:11:42;;;;;;;18.67;17.27;;;;;;;7.50;69.33;102678.00;10489656;28;20809;-80
2021/12/20 18:16:43;;;;;;;18.40;17.00;;;;;;;7.47;69.48;102681.59;10490222;28;20252;-80
2021/12/20 18:21:47;;;;;;;19.27;17.60;;;;;;;7.46;69.11;102689.59;10492378;28;20211;-80
2021/12/20 18:26:49;;;;;;;18.27;16.93;;;;;;;7.41;68.79;102695.91;10488935;28;20222;-79
2021/12/20 18:31:51;;;;;;;18.67;17.27;;;;;;;7.22;68.16;102660.16;10491054;28;20241;-80
2021/12/20 18:36:54;;;;;;;18.33;17.03;;;;;;;7.34;69.24;102678.41;10494003;28;20203;-79
2021/12/20 18:41:56;;;;;;;18.40;17.03;;;;;;;6.94;68.34;102631.69;10481534;28;20215;-79
2021/12/20 18:47:00;;;;;;;19.50;17.97;;;;;;;6.50;68.42;102558.53;10486570;28;20241;-80
2021/12/20 18:52:06;;;;;;;19.60;17.90;;;;;;;7.24;68.98;102676.06;10485483;28;20231;-79
2021/12/20 18:57:08;;;;;;;19.13;17.77;;;;;;;7.06;68.68;102656.16;10489729;28;20238;-80
2021/12/20 19:02:10;;;;;;;20.60;18.80;;;;;;;7.14;69.37;102680.72;10483366;28;20222;-79
2021/12/20 19:07:13;;;;;;;21.07;19.23;;;;;;;7.10;68.58;102679.97;10487095;28;20226;-80
2021/12/20 19:12:20;;;;;;;1275.33;534.33;;;;;;;6.93;69.44;102668.91;10488588;28;20219;-78
2021/12/20 19:17:22;;;;;;;939.07;350.90;;;;;;;6.21;69.33;102545.09;10486355;28;20279;-80
2021/12/20 19:22:26;;;;;;;899.47;415.43;;;;;;;6.99;69.61;102690.03;10481485;28;20306;-79
2021/12/20 19:27:28;;;;;;;943.40;406.80;;;;;;;4.86;69.09;102357.59;10477182;28;20706;-78
2021/12/20 19:32:30;;;;;;;19.30;18.07;;;;;;;5.92;69.56;102513.16;10482946;28;20312;-80
2021/12/20 19:37:33;;;;;;;19.93;18.53;;;;;;;6.67;70.48;102656.31;10476473;28;20230;-80
2021/12/20 19:42:35;;;;;;;922.53;436.23;;;;;;;6.69;70.18;102665.13;10475287;28;20206;-80
2021/12/20 19:47:39;;;;;;;825.33;325.60;;;;;;;6.67;69.80;102681.09;10485217;28;20526;-79
2021/12/20 19:52:42;;;;;;;952.23;447.37;;;;;;;6.68;70.14;102679.31;10474477;28;20210;-80
2021/12/20 19:57:56;;;;;;;18.87;17.23;;;;;;;6.65;69.88;102674.97;10465141;28;20215;-79
2021/12/20 20:02:59;;;;;;;20.10;18.80;;;;;;;6.60;70.04;102674.19;10463474;28;20237;-79
2021/12/20 20:08:05;;;;;;;20.40;18.70;;;;;;;6.54;70.48;102675.22;10465041;28;20972;-79
2021/12/20 20:13:27;;;;;;;20.73;18.97;;;;;;;6.26;70.14;102635.22;10462929;28;20943;-80
2021/12/20 20:18:31;;;;;;;21.17;19.37;;;;;;;4.96;70.47;102445.63;10464246;28;20705;-79
2021/12/20 20:23:43;;;;;;;20.70;18.93;;;;;;;6.18;70.46;102645.16;10464791;28;20231;-80
2021/12/20 20:28:47;;;;;;;19.77;18.33;;;;;;;6.17;71.30;102643.41;10461443;28;20211;-79
2021/12/20 20:33:53;;;;;;;21.73;19.93;;;;;;;6.28;70.95;102677.66;10459970;28;20227;-79
2021/12/20 20:38:56;;;;;;;216.37;128.07;;;;;;;5.41;70.88;102544.34;10457320;28;20234;-80
2021/12/20 20:43:59;;;;;;;21.47;19.77;;;;;;;5.97;71.50;102654.47;10458087;28;20230;-79
2021/12/20 20:49:04;;;;;;;22.40;20.40;;;;;;;6.11;71.46;102673.59;10460731;28;20215;-79
2021/12/20 20:54:08;;;;;;;22.40;20.47;;;;;;;6.07;71.68;102679.03;10466086;28;20221;-80
2021/12/20 20:59:17;;;;;;;21.73;19.80;;;;;;;5.85;71.96;102656.44;10466028;28;20211;-80
2021/12/20 21:04:23;;;;;;;23.43;21.37;;;;;;;5.69;72.03;102631.22;10465059;28;20241;-80
2021/12/20 21:09:26;;;;;;;23.97;21.63;;;;;;;5.89;72.22;102667.00;10467809;28;20215;-79
2021/12/20 21:14:28;;;;;;;23.17;21.33;;;;;;;5.82;72.11;102669.81;10461420;28;20684;-79
2021/12/20 21:19:30;;;;;;;22.73;20.80;;;;;;;5.48;72.48;102624.56;10460339;28;20203;-79
2021/12/20 21:24:39;;;;;;;23.93;21.73;;;;;;;5.73;72.73;102663.84;10465712;28;20230;-79
2021/12/20 21:29:41;;;;;;;23.03;20.90;;;;;;;5.41;72.44;102625.63;10460685;28;20234;-79
2021/12/20 21:34:43;;;;;;;24.40;22.07;;;;;;;5.62;73.41;102656.97;10460756;28;20254;-79
2021/12/20 21:39:46;;;;;;;25.83;23.43;;;;;;;5.39;73.45;102638.03;10465076;28;20623;-79
2021/12/20 21:44:47;;;;;;;25.67;22.17;;;;;;;5.32;73.73;102632.00;10457891;28;20230;-79
2021/12/20 21:49:49;;;;;;;25.43;22.73;;;;;;;5.11;73.79;102596.22;10458872;28;20218;-79
2021/12/20 21:54:52;;;;;;;30.57;23.50;;;;;;;5.44;74.38;102666.19;10461421;28;20284;-79
2021/12/20 21:59:54;;;;;;;24.03;21.70;;;;;;;5.39;74.30;102656.59;10458422;28;20207;-79
2021/12/20 22:04:55;;;;;;;25.20;22.70;;;;;;;5.29;74.30;102655.00;10451544;28;20227;-79
2021/12/20 22:09:58;;;;;;;25.20;22.80;;;;;;;5.32;75.15;102665.56;10456615;28;20211;-79
2021/12/20 22:15:02;;;;;;;25.83;23.23;;;;;;;5.23;74.99;102656.88;10458087;28;20317;-79
2021/12/20 22:20:05;;;;;;;25.60;22.90;;;;;;;4.87;75.11;102598.44;10453741;28;20221;-79
2021/12/20 22:25:10;;;;;;;24.60;22.30;;;;;;;5.01;75.13;102618.47;10455289;28;20226;-79
2021/12/20 22:30:12;;;;;;;149.60;90.63;;;;;;;5.15;75.14;102658.81;10459090;28;20231;-79
2021/12/20 22:35:15;;;;;;;24.63;22.23;;;;;;;4.97;74.81;102630.03;10448286;28;20872;-79
2021/12/20 22:40:19;;;;;;;32.50;25.80;;;;;;;5.08;75.86;102657.19;10454301;28;20218;-79
2021/12/20 22:45:20;;;;;;;189.70;100.47;;;;;;;5.03;75.50;102654.63;10451401;28;20231;-79
2021/12/20 22:50:22;;;;;;;28.77;24.23;;;;;;;5.00;75.96;102657.31;10456784;28;20215;-79
2021/12/20 22:55:25;;;;;;;112.87;49.07;;;;;;;4.98;76.28;102650.31;10441902;28;20298;-79
2021/12/20 23:00:50;;;;;;;25.70;23.17;;;;;;;4.93;76.33;102646.88;10448687;28;20257;-79
2021/12/20 23:05:53;;;;;;;27.57;22.10;;;;;;;4.66;76.73;102612.94;10448657;28;20744;-79
2021/12/20 23:10:56;;;;;;;23.87;21.53;;;;;;;4.56;76.17;102618.41;10445437;28;20715;-79